Time;durP1;ratioP1;P1;durP2;ratioP2;P2;SDS_P1;SDS_P2;PMS_P1;PMS_P2;Temp;Humidity;BMP_temperature;BMP_pressure;BME280_temperature;BME280_humidity;BME280_pressure;Samples;Min_cycle;Max_cycle;Signal;HPM_P1;HPM_P2
2022/12/04 00:03:03;;;;;;;42.53;17.75;;;;;;;2.38;100.00;100171.75;21079544;28;20105;-80
2022/12/04 00:13:05;;;;;;;41.70;18.58;;;;;;;2.31;100.00;100149.28;21090144;22;20446;-71
2022/12/04 00:23:07;;;;;;;41.75;18.05;;;;;;;2.28;100.00;100160.44;21065385;28;20105;-73
2022/12/04 00:33:08;;;;;;;35.42;15.50;;;;;;;2.19;100.00;100154.28;21064854;28;20052;-71
2022/12/04 00:43:09;;;;;;;38.40;15.57;;;;;;;2.03;100.00;100127.38;21065249;28;20048;-72
2022/12/04 00:53:10;;;;;;;36.33;15.60;;;;;;;2.14;100.00;100136.13;21080808;28;20058;-71
2022/12/04 01:03:12;;;;;;;44.40;16.85;;;;;;;2.04;100.00;100123.94;21081194;28;20060;-71
2022/12/04 01:13:13;;;;;;;35.88;15.13;;;;;;;2.15;100.00;100158.53;21080909;28;20123;-70
2022/12/04 01:23:14;;;;;;;33.75;14.95;;;;;;;2.20;100.00;100156.00;21023874;28;20056;-72
2022/12/04 01:33:16;;;;;;;36.22;15.40;;;;;;;2.23;100.00;100150.88;20995300;28;20072;-73
2022/12/04 01:43:17;;;;;;;31.42;14.60;;;;;;;2.24;100.00;100150.03;20994736;28;20259;-72
2022/12/04 01:53:18;;;;;;;34.55;15.65;;;;;;;2.13;100.00;100142.16;20993405;28;20052;-69
2022/12/04 02:03:19;;;;;;;35.63;16.02;;;;;;;2.12;100.00;100143.00;20993501;28;20431;-68
2022/12/04 02:13:21;;;;;;;35.38;15.65;;;;;;;2.20;100.00;100141.38;20993694;28;20056;-71
2022/12/04 02:23:22;;;;;;;39.58;16.88;;;;;;;2.13;100.00;100136.13;21049658;28;20060;-72
2022/12/04 02:33:23;;;;;;;35.60;15.15;;;;;;;2.10;100.00;100134.34;21073863;28;20048;-71
2022/12/04 02:43:25;;;;;;;36.25;16.50;;;;;;;2.16;100.00;100123.25;21072949;28;20102;-71
2022/12/04 02:53:26;;;;;;;35.17;15.88;;;;;;;2.24;100.00;100116.47;21073569;28;20515;-71
2022/12/04 03:03:27;;;;;;;41.33;16.45;;;;;;;2.26;100.00;100120.81;21071443;28;20044;-71
2022/12/04 03:13:28;;;;;;;35.45;15.48;;;;;;;2.20;100.00;100110.38;21068993;28;20056;-72
2022/12/04 03:23:30;;;;;;;38.25;15.52;;;;;;;2.14;100.00;100102.56;21069548;28;20474;-70
2022/12/04 03:33:31;;;;;;;35.35;16.05;;;;;;;2.12;100.00;100109.44;21007183;22;20049;-78
2022/12/04 03:43:32;;;;;;;36.53;16.38;;;;;;;2.25;100.00;100094.94;20922591;28;20060;-78
2022/12/04 03:53:34;;;;;;;33.22;16.05;;;;;;;2.21;100.00;100086.31;20921563;28;20056;-78
2022/12/04 04:03:35;;;;;;;36.40;15.32;;;;;;;2.15;100.00;100078.47;20902365;28;20429;-78
2022/12/04 04:24:15;;;;;;;38.22;16.15;;;;;;;2.37;100.00;100092.53;21052600;28;20048;-78
2022/12/04 04:34:16;;;;;;;34.53;16.13;;;;;;;2.39;100.00;100082.19;21083208;28;20063;-78
2022/12/04 04:44:18;;;;;;;36.50;15.25;;;;;;;2.38;100.00;100088.22;21080183;28;20056;-78
2022/12/04 04:54:19;;;;;;;32.53;14.57;;;;;;;2.42;100.00;100090.88;21097976;28;20058;-78
2022/12/04 05:04:20;;;;;;;31.58;14.55;;;;;;;2.43;100.00;100096.91;21092941;28;20056;-78
2022/12/04 05:14:21;;;;;;;36.28;15.10;;;;;;;2.46;100.00;100094.38;21074184;28;20048;-78
2022/12/04 05:24:22;;;;;;;31.15;14.25;;;;;;;2.50;100.00;100106.47;21030884;28;20570;-78
2022/12/04 05:34:24;;;;;;;30.95;13.88;;;;;;;2.43;100.00;100117.56;21012890;28;20056;-78
2022/12/04 05:44:25;;;;;;;30.77;13.80;;;;;;;2.44;100.00;100111.53;20989291;28;20056;-79
2022/12/04 05:54:26;;;;;;;30.70;13.65;;;;;;;2.53;100.00;100119.41;20990018;28;20669;-78
2022/12/04 06:04:27;;;;;;;29.27;12.60;;;;;;;2.48;100.00;100097.81;20983494;28;20048;-78
2022/12/04 06:14:29;;;;;;;30.58;13.25;;;;;;;2.56;100.00;100098.78;20999299;28;20052;-78
2022/12/04 06:24:36;;;;;;;32.50;13.88;;;;;;;2.52;100.00;100097.88;21066599;28;20078;-78
2022/12/04 06:34:37;;;;;;;27.65;11.93;;;;;;;2.51;100.00;100098.72;21083275;28;20135;-78
2022/12/04 06:44:38;;;;;;;30.25;12.80;;;;;;;2.49;100.00;100112.47;21083917;28;20062;-78
2022/12/04 06:54:40;;;;;;;30.25;12.52;;;;;;;2.63;100.00;100110.91;21086483;28;20105;-78
2022/12/04 07:04:41;;;;;;;29.63;12.77;;;;;;;2.56;100.00;100109.13;21083734;28;20048;-78
2022/12/04 07:14:42;;;;;;;28.27;12.80;;;;;;;2.62;100.00;100119.53;21097220;28;20052;-79
2022/12/04 07:24:43;;;;;;;26.70;12.85;;;;;;;2.62;100.00;100110.91;20999459;28;20053;-79
2022/12/04 07:34:45;;;;;;;29.23;13.60;;;;;;;2.70;100.00;100110.16;20920509;28;20045;-78
2022/12/04 07:44:46;;;;;;;30.17;13.38;;;;;;;2.68;100.00;100121.31;20901565;28;20478;-78
2022/12/04 07:54:47;;;;;;;29.08;13.10;;;;;;;2.56;100.00;100114.28;20909131;28;20060;-78
2022/12/04 08:04:49;;;;;;;28.40;12.63;;;;;;;2.74;100.00;100113.66;20894180;28;20049;-78
2022/12/04 08:14:50;;;;;;;28.40;12.77;;;;;;;2.75;100.00;100111.06;20955016;28;20059;-79
2022/12/04 08:24:51;;;;;;;28.85;13.50;;;;;;;2.70;100.00;100104.97;20992582;28;20060;-80
2022/12/04 08:34:53;;;;;;;30.35;12.95;;;;;;;2.78;100.00;100099.91;21005958;28;20048;-80
2022/12/04 08:44:56;;;;;;;26.88;12.77;;;;;;;2.78;100.00;100116.28;21000476;28;20099;-80
2022/12/04 08:54:58;;;;;;;28.08;12.20;;;;;;;2.89;100.00;100103.47;21002858;28;20052;-79
2022/12/04 09:04:59;;;;;;;29.15;13.48;;;;;;;2.91;100.00;100112.09;20973484;23;20098;-72
2022/12/04 09:15:00;;;;;;;27.48;12.80;;;;;;;2.96;100.00;100140.59;20756455;28;20054;-72
2022/12/04 09:25:03;;;;;;;41.47;19.85;;;;;;;3.09;100.00;100145.06;20747195;28;20061;-73
2022/12/04 09:35:05;;;;;;;29.75;14.30;;;;;;;3.10;100.00;100133.84;20745869;28;20050;-73
2022/12/04 09:45:06;;;;;;;31.38;14.55;;;;;;;3.11;100.00;100134.72;20747234;28;20096;-71
2022/12/04 09:55:07;;;;;;;30.08;13.88;;;;;;;3.15;100.00;100110.59;20748379;28;20482;-72
2022/12/04 10:05:08;;;;;;;25.90;13.38;;;;;;;3.15;100.00;100101.13;20744474;28;20053;-71
2022/12/04 10:15:10;;;;;;;35.65;15.13;;;;;;;3.14;100.00;100086.47;20745057;28;20065;-71
2022/12/04 10:25:12;;;;;;;46.55;18.05;;;;;;;3.07;100.00;100069.16;20742725;28;20116;-71
2022/12/04 10:35:13;;;;;;;48.65;20.42;;;;;;;3.00;100.00;100064.78;20742781;28;20041;-71
2022/12/04 10:45:14;;;;;;;33.15;14.68;;;;;;;3.07;100.00;100061.41;20738227;28;20053;-71
2022/12/04 10:55:15;;;;;;;32.33;14.98;;;;;;;3.19;100.00;100052.88;20738200;28;20058;-71
2022/12/04 11:05:17;;;;;;;29.75;12.23;;;;;;;3.36;100.00;100053.03;20736002;28;20050;-72
2022/12/04 11:15:18;;;;;;;29.27;13.02;;;;;;;3.26;100.00;100057.28;20739541;28;20081;-72
2022/12/04 11:25:19;;;;;;;30.88;12.90;;;;;;;3.20;100.00;100063.22;20740157;28;20058;-72
2022/12/04 11:35:20;;;;;;;28.25;12.85;;;;;;;3.30;100.00;100059.00;20738218;28;20053;-71
2022/12/04 11:45:23;;;;;;;27.67;12.48;;;;;;;3.41;100.00;100078.09;20741303;28;20529;-72
2022/12/04 11:55:24;;;;;;;30.48;14.23;;;;;;;3.44;100.00;100072.06;20739064;28;20494;-71
2022/12/04 12:05:29;;;;;;;35.38;14.80;;;;;;;3.50;100.00;100069.53;20729860;28;20061;-72
2022/12/04 12:15:31;;;;;;;28.13;13.82;;;;;;;3.21;100.00;100062.41;20732379;28;20068;-71
2022/12/04 12:35:52;;;;;;;34.67;16.35;;;;;;;2.87;100.00;100042.22;20717393;28;20068;-76
2022/12/04 12:45:53;;;;;;;31.48;15.82;;;;;;;2.60;100.00;100046.28;20740763;28;20100;-74
2022/12/04 12:55:55;;;;;;;34.72;15.75;;;;;;;2.51;100.00;100038.44;20681027;28;20100;-74
2022/12/04 13:05:56;;;;;;;35.60;16.55;;;;;;;2.55;100.00;100016.94;20746947;28;20050;-74
2022/12/04 13:15:57;;;;;;;42.28;17.98;;;;;;;2.53;100.00;100005.72;20743175;28;20053;-76
2022/12/04 13:25:58;;;;;;;43.28;20.35;;;;;;;2.54;100.00;99998.00;20681294;28;20057;-75
2022/12/04 13:36:00;;;;;;;45.30;21.40;;;;;;;2.33;100.00;100010.66;20742016;28;20058;-79
2022/12/04 13:46:01;;;;;;;49.20;21.60;;;;;;;2.41;100.00;100000.44;20744707;28;20064;-78
2022/12/04 13:56:03;;;;;;;47.22;20.40;;;;;;;2.20;100.00;99988.97;20680117;28;20081;-80
2022/12/04 14:06:10;;;;;;;47.28;20.45;;;;;;;2.30;100.00;100003.75;20693051;28;20789;-78
2022/12/04 14:16:11;;;;;;;51.28;23.75;;;;;;;2.36;100.00;100013.28;20664429;28;20079;-79
2022/12/04 14:26:13;;;;;;;52.40;22.30;;;;;;;2.40;100.00;100037.47;20673769;28;20517;-80
2022/12/04 14:36:14;;;;;;;63.85;26.08;;;;;;;2.42;100.00;100030.56;20744393;28;20104;-77
2022/12/04 14:46:15;;;;;;;93.40;34.28;;;;;;;2.35;100.00;100021.91;20743897;28;20405;-77
2022/12/04 14:56:17;;;;;;;70.72;29.25;;;;;;;2.33;100.00;100033.06;20742035;28;20645;-77
2022/12/04 15:06:18;;;;;;;46.97;23.08;;;;;;;2.28;100.00;100014.91;20737735;28;20046;-76
2022/12/04 15:16:19;;;;;;;58.17;27.30;;;;;;;2.33;100.00;100013.25;20666947;28;20054;-77
2022/12/04 15:26:21;;;;;;;55.33;25.50;;;;;;;2.40;100.00;100003.88;20743487;28;20145;-77
2022/12/04 15:36:22;;;;;;;122.50;41.80;;;;;;;2.22;100.00;100000.22;20738869;28;20132;-77
2022/12/04 15:46:23;;;;;;;50.53;21.48;;;;;;;2.18;100.00;99998.44;20738060;28;20104;-77
2022/12/04 15:56:26;;;;;;;53.20;20.88;;;;;;;2.11;100.00;100001.81;20738952;28;20058;-77
2022/12/04 16:06:28;;;;;;;74.38;30.20;;;;;;;2.17;100.00;100038.03;20737601;28;20100;-76
2022/12/04 16:16:29;;;;;;;62.38;26.88;;;;;;;2.26;100.00;100047.63;20691758;28;20057;-77
2022/12/04 16:26:30;;;;;;;60.35;27.30;;;;;;;2.31;100.00;100031.31;20618007;28;20060;-77
2022/12/04 16:36:31;;;;;;;65.57;26.73;;;;;;;2.31;100.00;100028.75;20686820;28;20058;-77
2022/12/04 16:46:33;;;;;;;63.20;24.05;;;;;;;2.26;100.00;100022.66;20679593;28;20054;-78
2022/12/04 16:56:34;;;;;;;58.95;24.02;;;;;;;2.27;100.00;100001.13;20694938;28;20070;-77
2022/12/04 17:06:35;;;;;;;59.38;24.88;;;;;;;2.36;100.00;100008.13;20664017;28;20058;-77
2022/12/04 17:16:37;;;;;;;67.40;26.88;;;;;;;2.39;100.00;99996.94;20655180;28;20058;-79
2022/12/04 17:26:38;;;;;;;57.33;23.58;;;;;;;2.33;100.00;100013.25;20659598;28;20499;-77
2022/12/04 17:36:39;;;;;;;57.13;23.90;;;;;;;2.42;100.00;100009.91;20660435;28;20050;-77
2022/12/04 17:46:41;;;;;;;59.88;24.88;;;;;;;2.38;100.00;100016.75;20658877;28;20063;-76
2022/12/04 17:56:42;;;;;;;59.67;24.20;;;;;;;2.37;100.00;100011.56;20657840;28;20068;-77
2022/12/04 18:06:51;;;;;;;68.40;27.23;;;;;;;2.42;100.00;100020.25;20641783;28;20062;-76
2022/12/04 18:16:52;;;;;;;68.22;28.40;;;;;;;2.44;100.00;100034.03;20656253;28;20057;-78
2022/12/04 18:26:54;;;;;;;68.97;28.77;;;;;;;2.46;100.00;100034.94;20663658;28;20065;-77
2022/12/04 18:36:55;;;;;;;88.75;30.83;;;;;;;2.54;100.00;100038.47;20790734;28;20068;-77
2022/12/04 18:46:57;;;;;;;87.85;34.10;;;;;;;2.52;100.00;100035.00;20702971;28;20058;-77
2022/12/04 18:56:58;;;;;;;80.35;29.10;;;;;;;2.53;100.00;100039.31;20651518;28;20117;-76
2022/12/04 19:06:59;;;;;;;78.65;28.90;;;;;;;2.41;100.00;100054.69;20652832;28;20186;-77
2022/12/04 19:17:01;;;;;;;81.35;28.88;;;;;;;2.40;100.00;100061.56;20718474;28;20053;-76
2022/12/04 19:27:09;;;;;;;75.97;28.48;;;;;;;2.39;100.00;100070.16;20800487;28;20050;-77
2022/12/04 19:37:11;;;;;;;74.32;27.40;;;;;;;2.39;100.00;100083.06;20729664;28;20309;-76
2022/12/04 19:47:14;;;;;;;75.30;29.67;;;;;;;2.38;100.00;100093.38;20731549;28;20058;-77
2022/12/04 19:57:15;;;;;;;73.43;27.75;;;;;;;2.46;100.00;100102.97;20728581;28;20489;-77
2022/12/04 20:07:16;;;;;;;75.65;29.70;;;;;;;2.48;100.00;100106.44;20729170;28;20054;-76
2022/12/04 20:17:18;;;;;;;71.25;27.42;;;;;;;2.51;100.00;100108.19;20728399;28;20434;-77
2022/12/04 20:27:19;;;;;;;72.22;27.33;;;;;;;2.55;100.00;100116.00;20728838;28;20064;-76
2022/12/04 20:37:20;;;;;;;67.40;28.10;;;;;;;2.48;100.00;100114.19;20712056;28;20046;-76
2022/12/04 20:47:23;;;;;;;65.20;26.52;;;;;;;2.46;100.00;100112.44;20730203;28;20061;-77
2022/12/04 20:57:25;;;;;;;60.47;23.58;;;;;;;2.46;100.00;100115.03;20731329;28;20131;-77
2022/12/04 21:07:26;;;;;;;61.60;24.48;;;;;;;2.50;100.00;100115.09;20739952;28;20058;-76
2022/12/04 21:17:27;;;;;;;60.42;24.38;;;;;;;2.47;100.00;100122.78;20760450;28;20054;-76
2022/12/04 21:27:29;;;;;;;63.55;27.92;;;;;;;2.37;100.00;100118.38;20733949;28;20073;-76
2022/12/04 21:37:30;;;;;;;62.10;25.55;;;;;;;2.31;100.00;100129.50;20737979;28;20068;-75
2022/12/04 21:58:16;;;;;;;62.90;25.20;;;;;;;2.25;100.00;100132.00;20825188;28;20071;-79
2022/12/04 22:08:17;;;;;;;63.10;25.65;;;;;;;2.36;100.00;100146.78;20799403;23;20057;-78
2022/12/04 22:18:18;;;;;;;65.20;28.92;;;;;;;2.37;100.00;100156.25;20819468;28;20153;-78
2022/12/04 22:28:20;;;;;;;61.67;26.05;;;;;;;2.40;100.00;100169.22;20819832;28;20446;-78
2022/12/04 22:38:21;;;;;;;60.83;25.27;;;;;;;2.41;100.00;100176.13;20817635;28;20133;-79
2022/12/04 22:48:22;;;;;;;60.70;25.17;;;;;;;2.50;100.00;100186.59;20822513;28;20123;-76
2022/12/04 22:58:24;;;;;;;53.95;23.23;;;;;;;2.43;100.00;100189.91;20818265;28;20053;-76
2022/12/04 23:08:25;;;;;;;65.28;24.65;;;;;;;2.41;100.00;100176.97;20821632;28;20053;-76
2022/12/04 23:18:26;;;;;;;60.97;24.23;;;;;;;2.43;100.00;100195.94;20823183;28;20506;-73
2022/12/04 23:28:28;;;;;;;55.05;23.02;;;;;;;2.44;100.00;100207.16;20821329;28;20057;-77
2022/12/04 23:38:29;;;;;;;55.13;22.75;;;;;;;2.45;100.00;100221.84;20820773;28;20053;-74
2022/12/04 23:48:30;;;;;;;64.82;24.20;;;;;;;2.41;100.00;100228.66;20820878;28;20119;-75
2022/12/04 23:58:32;;;;;;;56.95;23.10;;;;;;;2.48;100.00;100245.09;20820080;28;20111;-77
